createdAt,value
2022-08-07T00:00:36.678Z,2.80
2022-08-07T00:03:08.800Z,3.10
2022-08-07T00:05:37.161Z,2.77
2022-08-07T00:08:04.785Z,2.60
2022-08-07T00:10:31.724Z,3.03
2022-08-07T00:13:02.302Z,2.53
2022-08-07T00:15:46.366Z,2.53
2022-08-07T00:18:23.918Z,3.20
2022-08-07T00:20:51.336Z,2.83
2022-08-07T00:23:18.426Z,2.70
2022-08-07T00:25:52.536Z,2.80
2022-08-07T00:28:33.685Z,2.53
2022-08-07T00:31:12.395Z,2.70
2022-08-07T00:33:43.328Z,3.30
2022-08-07T00:36:14.312Z,2.90
2022-08-07T00:38:40.896Z,3.10
2022-08-07T00:41:10.055Z,3.00
2022-08-07T00:44:01.274Z,2.77
2022-08-07T00:46:28.465Z,2.50
2022-08-07T00:48:55.113Z,3.33
2022-08-07T00:51:21.695Z,3.00
2022-08-07T00:53:50.640Z,2.93
2022-08-07T00:56:22.632Z,2.37
2022-08-07T00:58:49.801Z,2.20
2022-08-07T01:01:17.147Z,2.83
2022-08-07T01:03:56.055Z,2.60
2022-08-07T01:06:25.873Z,2.43
2022-08-07T01:08:53.969Z,2.40
2022-08-07T01:12:23.708Z,2.83
2022-08-07T01:14:09.671Z,3.40
2022-08-07T01:16:37.046Z,3.00
2022-08-07T01:19:18.087Z,2.60
2022-08-07T01:21:47.132Z,2.57
2022-08-07T01:24:14.263Z,2.60
2022-08-07T01:26:51.544Z,2.80
2022-08-07T01:29:19.879Z,2.23
2022-08-07T01:31:48.655Z,2.80
2022-08-07T01:34:17.866Z,2.90
2022-08-07T01:36:52.434Z,2.10
2022-08-07T01:39:39.564Z,2.83
2022-08-07T01:42:39.015Z,2.30
2022-08-07T01:44:54.844Z,2.70
2022-08-07T01:48:29.260Z,2.90
2022-08-07T01:50:09.105Z,2.67
2022-08-07T01:52:38.785Z,2.27
2022-08-07T01:55:10.101Z,2.77
2022-08-07T01:58:06.445Z,2.70
2022-08-07T02:00:45.262Z,2.70
2022-08-07T02:03:21.501Z,2.97
2022-08-07T02:05:59.822Z,2.30
2022-08-07T02:08:28.144Z,2.93
2022-08-07T02:10:58.601Z,2.47
2022-08-07T02:13:56.820Z,2.87
2022-08-07T02:16:14.596Z,2.83
2022-08-07T02:18:47.075Z,2.20
2022-08-07T02:21:16.096Z,2.40
2022-08-07T02:23:43.879Z,2.80
2022-08-07T02:26:32.919Z,2.90
2022-08-07T02:28:58.561Z,3.03
2022-08-07T02:31:28.826Z,2.47
2022-08-07T02:34:03.523Z,2.93
2022-08-07T02:36:32.963Z,2.40
2022-08-07T02:39:01.889Z,2.60
2022-08-07T02:41:37.410Z,2.30
2022-08-07T02:44:05.012Z,2.33
2022-08-07T02:46:34.101Z,2.83
2022-08-07T02:49:05.311Z,2.40
2022-08-07T02:51:42.938Z,3.00
2022-08-07T02:54:17.897Z,3.17
2022-08-07T02:56:46.852Z,3.20
2022-08-07T02:59:18.644Z,3.10
2022-08-07T03:01:52.232Z,3.30
2022-08-07T03:04:23.210Z,2.80
2022-08-07T03:06:52.362Z,2.70
2022-08-07T03:09:41.886Z,2.20
2022-08-07T03:12:08.137Z,2.67
2022-08-07T03:14:52.125Z,3.10
2022-08-07T03:17:19.406Z,2.70
2022-08-07T03:19:54.431Z,2.77
2022-08-07T03:22:22.729Z,2.80
2022-08-07T03:24:51.149Z,3.70
2022-08-07T03:27:30.268Z,3.20
2022-08-07T03:29:58.125Z,2.93
2022-08-07T03:32:34.346Z,3.23
2022-08-07T03:35:17.450Z,3.60
2022-08-07T03:37:54.071Z,2.90
2022-08-07T03:40:23.190Z,2.60
2022-08-07T03:42:54.253Z,2.97
2022-08-07T03:45:30.877Z,2.90
2022-08-07T03:47:59.210Z,3.10
2022-08-07T03:50:28.374Z,3.00
2022-08-07T03:52:58.128Z,3.00
2022-08-07T03:55:25.015Z,3.20
2022-08-07T03:59:05.587Z,2.60
2022-08-07T04:01:00.494Z,2.90
2022-08-07T04:03:27.240Z,3.03
2022-08-07T04:05:58.898Z,3.10
2022-08-07T04:08:26.858Z,2.80
2022-08-07T04:12:15.586Z,2.67
2022-08-07T04:14:10.658Z,2.67
2022-08-07T04:16:30.202Z,2.90
2022-08-07T04:19:03.873Z,3.30
2022-08-07T04:21:38.887Z,2.40
2022-08-07T04:24:10.336Z,2.60
2022-08-07T04:26:57.995Z,3.00
2022-08-07T04:29:24.560Z,2.90
2022-08-07T04:32:03.262Z,3.03
2022-08-07T04:34:39.457Z,3.00
2022-08-07T04:37:15.209Z,2.50
2022-08-07T04:39:47.930Z,2.73
2022-08-07T04:42:16.523Z,2.70
2022-08-07T04:44:54.522Z,2.87
2022-08-07T04:48:01.190Z,3.37
2022-08-07T04:50:57.362Z,2.50
2022-08-07T04:54:01.185Z,3.93
2022-08-07T04:58:14.419Z,3.00
2022-08-07T05:00:12.066Z,3.10
2022-08-07T05:02:38.049Z,3.00
2022-08-07T05:05:52.650Z,3.37
2022-08-07T05:08:09.131Z,3.97
2022-08-07T05:10:43.770Z,3.10
2022-08-07T05:14:55.447Z,3.23
2022-08-07T05:16:09.212Z,3.20
2022-08-07T05:18:41.312Z,3.50
2022-08-07T05:21:10.008Z,3.07
2022-08-07T05:24:02.277Z,3.60
2022-08-07T05:26:31.171Z,3.57
2022-08-07T05:29:00.405Z,3.87
2022-08-07T05:31:38.561Z,3.60
2022-08-07T05:34:11.363Z,3.63
2022-08-07T05:36:52.583Z,3.23
2022-08-07T05:40:05.631Z,3.57
2022-08-07T05:42:12.547Z,3.50
2022-08-07T05:44:41.515Z,3.20
2022-08-07T05:47:18.029Z,3.30
2022-08-07T05:49:49.445Z,3.40
2022-08-07T05:52:20.287Z,3.30
2022-08-07T05:54:55.459Z,4.10
2022-08-07T05:57:26.766Z,5.53
2022-08-07T06:00:00.194Z,3.27
2022-08-07T06:02:30.646Z,3.20
2022-08-07T06:05:03.332Z,2.87
2022-08-07T06:08:09.288Z,2.67
2022-08-07T06:10:18.757Z,3.10
2022-08-07T06:12:46.978Z,3.50
2022-08-07T06:15:16.198Z,3.20
2022-08-07T06:17:50.845Z,3.63
2022-08-07T06:20:25.605Z,3.13
2022-08-07T06:23:02.297Z,2.53
2022-08-07T06:25:54.656Z,2.57
2022-08-07T06:28:27.452Z,3.53
2022-08-07T06:30:55.420Z,2.70
2022-08-07T06:33:22.927Z,3.00
2022-08-07T06:36:06.385Z,3.07
2022-08-07T06:38:36.093Z,2.77
2022-08-07T06:41:07.024Z,5.97
2022-08-07T06:43:39.463Z,2.93
2022-08-07T06:46:11.634Z,3.60
2022-08-07T06:48:42.005Z,2.93
2022-08-07T06:51:15.395Z,2.50
2022-08-07T06:54:12.064Z,2.00
2022-08-07T06:56:49.731Z,2.20
2022-08-07T07:00:14.596Z,4.20
2022-08-07T07:02:49.096Z,3.50
2022-08-07T07:05:09.404Z,2.60
2022-08-07T07:07:59.357Z,2.80
2022-08-07T07:10:34.972Z,2.13
2022-08-07T07:13:07.761Z,2.10
2022-08-07T07:15:44.766Z,2.43
2022-08-07T07:18:47.922Z,1.93
2022-08-07T07:21:19.372Z,1.50
2022-08-07T07:24:05.554Z,2.20
2022-08-07T07:26:37.234Z,1.43
2022-08-07T07:29:55.911Z,2.10
2022-08-07T07:31:56.814Z,1.60
2022-08-07T07:34:31.009Z,1.63
2022-08-07T07:37:05.605Z,1.77
2022-08-07T07:39:52.149Z,1.90
2022-08-07T07:42:33.093Z,1.50
2022-08-07T07:45:04.760Z,1.30
2022-08-07T07:47:51.945Z,1.47
2022-08-07T07:50:35.772Z,1.43
2022-08-07T07:53:06.366Z,1.90
2022-08-07T07:55:54.744Z,1.97
2022-08-07T07:58:26.437Z,1.20
2022-08-07T08:00:55.441Z,1.20
2022-08-07T08:04:09.411Z,1.53
2022-08-07T08:06:11.555Z,1.20
2022-08-07T08:08:41.940Z,1.03
2022-08-07T08:11:16.118Z,3.10
2022-08-07T08:13:54.348Z,1.70
2022-08-07T08:16:35.217Z,1.93
2022-08-07T08:19:09.873Z,1.43
2022-08-07T08:22:07.922Z,1.20
2022-08-07T08:25:09.447Z,1.40
2022-08-07T08:27:56.732Z,1.20
2022-08-07T08:30:25.075Z,1.30
2022-08-07T08:32:57.492Z,1.10
2022-08-07T08:35:28.723Z,1.33
2022-08-07T08:38:04.755Z,1.10
2022-08-07T08:40:39.514Z,1.20
2022-08-07T08:43:42.359Z,1.63
2022-08-07T08:46:14.435Z,1.30
2022-08-07T08:48:51.706Z,1.60
2022-08-07T08:51:49.949Z,1.10
2022-08-07T08:54:30.511Z,1.40
2022-08-07T08:56:58.542Z,1.13
2022-08-07T08:59:50.998Z,0.93
2022-08-07T09:02:36.402Z,2.90
2022-08-07T09:05:24.951Z,1.20
2022-08-07T09:08:24.332Z,1.03
2022-08-07T09:11:24.765Z,0.90
2022-08-07T09:14:13.445Z,1.20
2022-08-07T09:16:47.630Z,1.00
2022-08-07T09:19:52.852Z,0.93
2022-08-07T09:24:32.968Z,0.83
2022-08-07T09:25:34.279Z,0.90
2022-08-07T09:30:02.017Z,0.90
2022-08-07T09:31:15.410Z,0.87
2022-08-07T09:34:15.899Z,1.00
2022-08-07T09:36:59.271Z,1.20
2022-08-07T09:39:55.024Z,0.90
2022-08-07T09:42:54.712Z,1.17
2022-08-07T09:47:51.765Z,1.20
2022-08-07T09:49:09.439Z,1.20
2022-08-07T09:52:16.190Z,1.57
2022-08-07T09:54:39.493Z,1.40
2022-08-07T09:57:15.470Z,1.50
2022-08-07T10:00:04.117Z,1.30
2022-08-07T10:03:07.888Z,1.40
2022-08-07T10:06:04.479Z,1.43
2022-08-07T10:08:58.906Z,1.60
2022-08-07T10:12:02.288Z,1.40
2022-08-07T10:14:54.936Z,1.30
2022-08-07T10:18:00.868Z,1.70
2022-08-07T10:21:02.790Z,1.70
2022-08-07T10:24:05.476Z,2.50
2022-08-07T10:26:37.039Z,1.55
2022-08-07T10:29:25.309Z,1.65
2022-08-07T10:32:06.195Z,1.48
2022-08-07T10:35:55.812Z,1.50
2022-08-07T10:38:35.812Z,1.73
2022-08-07T10:41:46.395Z,1.70
2022-08-07T10:44:15.885Z,2.15
2022-08-07T10:47:03.527Z,1.63
2022-08-07T10:49:49.605Z,1.50
2022-08-07T10:52:51.208Z,1.33
2022-08-07T10:55:37.075Z,1.80
2022-08-07T10:58:36.407Z,1.40
2022-08-07T11:01:11.745Z,1.50
2022-08-07T11:03:52.763Z,1.40
2022-08-07T11:06:28.342Z,1.37
2022-08-07T11:09:02.248Z,1.40
2022-08-07T11:11:35.661Z,1.37
2022-08-07T11:15:00.318Z,1.20
2022-08-07T11:17:45.734Z,1.53
2022-08-07T11:20:35.609Z,1.30
2022-08-07T11:23:12.330Z,1.50
2022-08-07T11:26:13.069Z,1.60
2022-08-07T11:28:51.367Z,1.60
2022-08-07T11:32:08.744Z,1.77
2022-08-07T11:34:46.050Z,1.63
2022-08-07T11:37:58.429Z,1.40
2022-08-07T11:40:51.760Z,1.37
2022-08-07T11:43:41.498Z,1.30
2022-08-07T11:46:55.413Z,1.37
2022-08-07T11:50:30.073Z,1.57
2022-08-07T11:52:54.156Z,1.60
2022-08-07T11:56:12.038Z,1.30
2022-08-07T12:00:12.325Z,1.30
2022-08-07T12:02:30.463Z,1.30
2022-08-07T12:05:15.310Z,1.40
2022-08-07T12:08:04.056Z,1.30
2022-08-07T12:10:30.847Z,1.30
2022-08-07T12:13:11.508Z,1.60
2022-08-07T12:16:05.808Z,1.42
2022-08-07T12:18:45.149Z,1.63
2022-08-07T12:21:55.911Z,1.50
2022-08-07T12:24:37.662Z,1.20
2022-08-07T12:27:16.938Z,1.00
2022-08-07T12:29:51.531Z,1.13
2022-08-07T12:32:30.467Z,1.10
2022-08-07T12:34:58.298Z,1.53
2022-08-07T12:37:28.503Z,1.57
2022-08-07T12:40:36.377Z,1.43
2022-08-07T12:43:09.203Z,1.30
2022-08-07T12:45:52.744Z,1.00
2022-08-07T12:48:52.844Z,1.30
2022-08-07T12:51:21.850Z,1.00
2022-08-07T12:54:02.713Z,1.17
2022-08-07T12:56:51.498Z,0.90
2022-08-07T12:59:30.439Z,1.10
2022-08-07T13:02:30.991Z,1.00
2022-08-07T13:05:14.682Z,0.90
2022-08-07T13:08:19.395Z,0.80
2022-08-07T13:10:56.842Z,0.80
2022-08-07T13:14:23.745Z,1.10
2022-08-07T13:17:12.236Z,0.90
2022-08-07T13:19:52.766Z,1.00
2022-08-07T13:22:37.298Z,1.43
2022-08-07T13:25:23.985Z,1.17
2022-08-07T13:28:10.952Z,1.00
2022-08-07T13:30:52.298Z,0.90
2022-08-07T13:34:30.666Z,0.80
2022-08-07T13:36:39.916Z,1.00
2022-08-07T13:40:33.147Z,0.70
2022-08-07T13:42:21.647Z,1.00
2022-08-07T13:45:20.936Z,0.90
2022-08-07T13:48:05.880Z,0.80
2022-08-07T13:50:33.063Z,0.97
2022-08-07T13:53:04.048Z,0.90
2022-08-07T13:55:36.891Z,0.90
2022-08-07T13:58:31.456Z,0.90
2022-08-07T14:01:09.952Z,0.90
2022-08-07T14:04:07.236Z,1.27
2022-08-07T14:06:36.172Z,1.10
2022-08-07T14:09:05.192Z,0.90
2022-08-07T14:11:53.621Z,0.90
2022-08-07T14:14:33.188Z,1.10
2022-08-07T14:17:51.414Z,1.27
2022-08-07T14:20:43.596Z,1.10
2022-08-07T14:22:46.441Z,1.20
2022-08-07T14:25:15.973Z,1.00
2022-08-07T14:28:19.941Z,1.00
2022-08-07T14:30:37.630Z,1.10
2022-08-07T14:33:08.508Z,1.03
2022-08-07T14:35:45.807Z,1.27
2022-08-07T14:38:24.546Z,1.10
2022-08-07T14:40:58.970Z,1.27
2022-08-07T14:46:17.674Z,1.50
2022-08-07T14:48:48.382Z,0.80
2022-08-07T14:51:27.254Z,1.00
2022-08-07T14:54:33.052Z,1.00
2022-08-07T14:57:04.131Z,1.47
2022-08-07T15:00:04.353Z,1.00
2022-08-07T15:08:05.129Z,1.17
2022-08-07T15:10:58.656Z,1.30
2022-08-07T15:13:26.839Z,1.30
2022-08-07T15:16:11.076Z,0.80
2022-08-07T15:18:43.576Z,1.23
2022-08-07T15:21:58.706Z,1.00
2022-08-07T15:25:12.824Z,1.30
2022-08-07T15:27:06.193Z,1.63
2022-08-07T15:32:39.841Z,1.60
2022-08-07T15:35:13.312Z,1.70
2022-08-07T15:40:34.332Z,1.00
2022-08-07T15:43:10.565Z,1.20
2022-08-07T15:46:03.538Z,1.00
2022-08-07T15:48:37.143Z,3.07
2022-08-07T15:54:12.361Z,1.37
2022-08-07T15:56:41.521Z,1.77
2022-08-07T15:59:16.277Z,1.20
2022-08-07T16:02:01.866Z,2.03
2022-08-07T16:04:32.051Z,1.43
2022-08-07T16:07:00.591Z,1.20
2022-08-07T16:09:41.926Z,1.27
2022-08-07T16:12:33.833Z,1.10
2022-08-07T16:15:58.184Z,0.97
2022-08-07T16:18:50.005Z,1.50
2022-08-07T16:22:02.223Z,0.80
2022-08-07T16:24:52.739Z,1.30
2022-08-07T16:27:39.990Z,1.10
2022-08-07T16:30:30.277Z,1.00
2022-08-07T16:34:02.994Z,0.90
2022-08-07T16:37:02.820Z,1.20
2022-08-07T16:39:48.971Z,0.90
2022-08-07T16:42:37.429Z,1.00
2022-08-07T16:46:21.070Z,1.30
2022-08-07T16:48:53.817Z,1.73
2022-08-07T16:51:54.507Z,1.20
2022-08-07T16:54:55.038Z,1.23
2022-08-07T16:58:02.575Z,1.00
2022-08-07T17:00:29.987Z,1.00
2022-08-07T17:03:19.263Z,1.00
2022-08-07T17:06:31.324Z,1.17
2022-08-07T17:09:10.651Z,1.40
2022-08-07T17:12:04.725Z,1.40
2022-08-07T17:14:41.537Z,1.57
2022-08-07T17:17:46.600Z,1.10
2022-08-07T17:20:37.487Z,1.10
2022-08-07T17:23:22.638Z,1.10
2022-08-07T17:26:23.557Z,1.20
2022-08-07T17:29:04.950Z,1.17
2022-08-07T17:32:03.106Z,1.20
2022-08-07T17:35:02.682Z,1.20
2022-08-07T17:38:09.441Z,1.20
2022-08-07T17:40:34.725Z,1.30
2022-08-07T17:43:17.793Z,3.23
2022-08-07T17:45:55.466Z,2.20
2022-08-07T17:48:32.324Z,1.30
2022-08-07T17:51:21.276Z,1.20
2022-08-07T17:54:06.444Z,1.20
2022-08-07T17:56:49.793Z,1.70
2022-08-07T17:59:24.303Z,1.33
2022-08-07T18:01:58.048Z,1.37
2022-08-07T18:04:37.732Z,1.60
2022-08-07T18:07:20.199Z,1.73
2022-08-07T18:10:06.370Z,1.73
2022-08-07T18:13:06.830Z,1.60
2022-08-07T18:15:53.705Z,1.57
2022-08-07T18:18:47.361Z,1.30
2022-08-07T18:21:37.234Z,1.20
2022-08-07T18:24:28.450Z,1.80
2022-08-07T18:27:22.951Z,1.40
2022-08-07T18:30:06.534Z,1.43
2022-08-07T18:33:15.210Z,2.33
2022-08-07T18:36:16.176Z,1.20
2022-08-07T18:40:05.736Z,1.50
2022-08-07T18:42:11.949Z,1.00
2022-08-07T18:48:01.503Z,2.37
2022-08-07T18:50:47.405Z,1.93
2022-08-07T18:53:36.730Z,1.70
2022-08-07T18:56:35.255Z,2.00
2022-08-07T18:59:10.214Z,1.77
2022-08-07T19:02:36.658Z,1.40
2022-08-07T19:05:21.604Z,1.40
2022-08-07T19:08:03.786Z,1.67
2022-08-07T19:10:51.467Z,1.40
2022-08-07T19:13:50.168Z,1.20
2022-08-07T19:17:00.489Z,1.37
2022-08-07T19:19:50.955Z,1.50
2022-08-07T19:22:36.161Z,1.80
2022-08-07T19:25:06.454Z,1.40
2022-08-07T19:30:54.480Z,1.17
2022-08-07T19:31:01.704Z,1.57
2022-08-07T19:33:13.177Z,1.20
2022-08-07T19:35:44.470Z,1.53
2022-08-07T19:38:15.959Z,1.67
2022-08-07T19:40:50.699Z,1.27
2022-08-07T19:43:44.128Z,1.60
2022-08-07T19:46:17.751Z,1.60
2022-08-07T19:48:54.497Z,1.50
2022-08-07T19:51:50.978Z,1.47
2022-08-07T19:54:32.522Z,1.50
2022-08-07T19:58:03.204Z,1.63
2022-08-07T19:59:54.188Z,1.30
2022-08-07T20:02:52.008Z,1.80
2022-08-07T20:05:22.235Z,1.33
2022-08-07T20:07:50.905Z,1.83
2022-08-07T20:10:36.966Z,1.77
2022-08-07T20:13:23.780Z,1.67
2022-08-07T20:15:57.564Z,1.70
2022-08-07T20:18:32.709Z,1.57
2022-08-07T20:21:03.462Z,1.90
2022-08-07T20:23:48.382Z,1.30
2022-08-07T20:26:32.233Z,2.20
2022-08-07T20:29:01.596Z,2.10
2022-08-07T20:31:38.332Z,6.13
2022-08-07T20:34:05.961Z,2.10
2022-08-07T20:36:33.740Z,1.83
2022-08-07T20:39:11.680Z,1.50
2022-08-07T20:41:53.305Z,1.60
2022-08-07T20:44:29.016Z,1.60
2022-08-07T20:47:05.593Z,1.80
2022-08-07T20:49:59.098Z,1.57
2022-08-07T20:52:50.672Z,1.63
2022-08-07T20:55:23.810Z,1.67
2022-08-07T20:58:03.702Z,2.13
2022-08-07T21:00:44.390Z,2.00
2022-08-07T21:03:19.202Z,1.57
2022-08-07T21:06:25.764Z,2.00
2022-08-07T21:09:15.099Z,1.80
2022-08-07T21:11:50.210Z,2.13
2022-08-07T21:14:32.620Z,1.80
2022-08-07T21:18:01.265Z,1.40
2022-08-07T21:20:04.483Z,1.70
2022-08-07T21:22:53.543Z,1.90
2022-08-07T21:25:29.070Z,1.93
2022-08-07T21:28:19.102Z,1.90
2022-08-07T21:31:49.813Z,1.73
2022-08-07T21:34:32.315Z,1.90
2022-08-07T21:37:21.503Z,2.00
2022-08-07T21:40:00.817Z,2.07
2022-08-07T21:42:55.850Z,1.60
2022-08-07T21:46:08.712Z,1.83
2022-08-07T21:49:00.389Z,1.60
2022-08-07T21:51:51.320Z,2.07
2022-08-07T21:54:38.560Z,1.80
2022-08-07T21:57:39.581Z,2.00
2022-08-07T22:00:23.005Z,2.03
2022-08-07T22:03:08.870Z,1.80
2022-08-07T22:06:04.396Z,2.20
2022-08-07T22:08:39.205Z,2.00
2022-08-07T22:11:06.117Z,2.10
2022-08-07T22:13:52.233Z,1.80
2022-08-07T22:16:41.671Z,1.83
2022-08-07T22:19:30.115Z,2.07
2022-08-07T22:22:01.846Z,1.83
2022-08-07T22:24:40.103Z,2.40
2022-08-07T22:27:18.661Z,1.97
2022-08-07T22:29:54.310Z,1.87
2022-08-07T22:32:33.526Z,1.80
2022-08-07T22:35:02.128Z,2.60
2022-08-07T22:38:03.693Z,2.03
2022-08-07T22:40:52.706Z,2.07
2022-08-07T22:43:43.512Z,1.90
2022-08-07T22:47:04.520Z,2.30
2022-08-07T22:49:54.039Z,2.20
2022-08-07T22:52:36.825Z,1.93
2022-08-07T22:55:32.604Z,2.30
2022-08-07T22:58:06.817Z,2.27
2022-08-07T23:00:51.111Z,2.13
2022-08-07T23:03:58.340Z,1.83
2022-08-07T23:06:51.728Z,1.90
2022-08-07T23:10:06.206Z,2.30
2022-08-07T23:12:53.083Z,2.50
2022-08-07T23:15:22.085Z,2.20
2022-08-07T23:18:26.805Z,1.97
2022-08-07T23:21:29.938Z,1.97
2022-08-07T23:24:50.455Z,2.07
2022-08-07T23:27:34.122Z,2.00
2022-08-07T23:30:38.976Z,2.20
2022-08-07T23:34:34.210Z,1.87
2022-08-07T23:37:17.562Z,2.07
2022-08-07T23:39:59.607Z,2.20
2022-08-07T23:42:53.402Z,2.30
2022-08-07T23:45:33.564Z,2.43
2022-08-07T23:48:19.242Z,2.10
2022-08-07T23:50:58.134Z,1.90
2022-08-07T23:53:50.964Z,2.60
2022-08-07T23:56:38.980Z,2.57
